Time;durP1;ratioP1;P1;durP2;ratioP2;P2;SDS_P1;SDS_P2;PMS_P1;PMS_P2;Temp;Humidity;BMP_temperature;BMP_pressure;BME280_temperature;BME280_humidity;BME280_pressure;Samples;Min_cycle;Max_cycle;Signal;HPM_P1;HPM_P2
2022/09/27 00:04:28;;;;;;;0.93;0.65;;;;;;;10.90;100.00;98199.28;10245258;28;20113;-74
2022/09/27 00:09:29;;;;;;;2.47;0.70;;;;;;;10.85;100.00;98200.81;10245713;28;20514;-75
2022/09/27 00:14:31;;;;;;;0.80;0.50;;;;;;;10.96;100.00;98193.25;10248269;28;20062;-73
2022/09/27 00:19:33;;;;;;;1.73;0.77;;;;;;;11.08;100.00;98195.47;10243595;28;20514;-75
2022/09/27 00:24:34;;;;;;;1.60;0.65;;;;;;;11.05;100.00;98196.69;10249315;28;20073;-72
2022/09/27 00:29:36;;;;;;;0.77;0.68;;;;;;;10.99;100.00;98202.72;10248066;28;20574;-73
2022/09/27 00:34:38;;;;;;;1.48;0.80;;;;;;;11.01;100.00;98195.38;10269580;28;20191;-77
2022/09/27 00:39:39;;;;;;;1.02;0.80;;;;;;;10.98;100.00;98181.59;10293106;28;20340;-77
2022/09/27 00:44:40;;;;;;;2.35;0.88;;;;;;;11.05;100.00;98188.69;10300818;28;20085;-76
2022/09/27 00:49:52;;;;;;;1.90;0.40;;;;;;;11.02;100.00;98190.88;10246801;28;20055;-75
2022/09/27 00:55:03;;;;;;;0.65;0.38;;;;;;;11.00;100.00;98182.25;10248857;28;20058;-75
2022/09/27 01:00:11;;;;;;;1.05;0.82;;;;;;;10.94;100.00;98173.97;10245745;28;20046;-73
2022/09/27 01:05:14;;;;;;;2.20;0.90;;;;;;;11.03;100.00;98179.22;10247065;28;20054;-74
2022/09/27 01:10:17;;;;;;;1.13;0.82;;;;;;;11.11;100.00;98163.22;10238536;28;20074;-74
2022/09/27 01:15:27;;;;;;;2.75;1.15;;;;;;;11.02;100.00;98169.56;10246896;28;20409;-73
2022/09/27 01:21:04;;;;;;;1.10;0.75;;;;;;;11.19;100.00;98165.78;10243655;28;20733;-75
2022/09/27 01:26:15;;;;;;;2.05;0.70;;;;;;;11.23;100.00;98161.78;10243534;28;20054;-76
2022/09/27 01:31:36;;;;;;;1.63;0.52;;;;;;;11.17;100.00;98162.50;10239623;28;20039;-74
2022/09/27 01:37:00;;;;;;;0.70;0.63;;;;;;;11.15;100.00;98167.16;10245845;28;20046;-75
2022/09/27 01:42:36;;;;;;;0.88;0.50;;;;;;;10.99;100.00;98159.28;10258392;28;20432;-76
2022/09/27 01:47:44;;;;;;;2.13;0.40;;;;;;;11.01;100.00;98162.63;10240353;28;20109;-75
2022/09/27 01:53:02;;;;;;;0.98;0.68;;;;;;;10.84;100.00;98162.72;10246200;28;20050;-74
2022/09/27 01:58:13;;;;;;;1.25;0.70;;;;;;;10.89;100.00;98155.03;10244619;28;20073;-76
2022/09/27 02:03:27;;;;;;;0.90;0.50;;;;;;;10.85;100.00;98143.06;10211686;28;20288;-75
2022/09/27 02:08:33;;;;;;;2.13;1.05;;;;;;;10.89;100.00;98149.69;10270626;28;20166;-73
2022/09/27 02:13:52;;;;;;;1.15;0.57;;;;;;;10.92;100.00;98151.19;10247132;28;20047;-75
2022/09/27 02:19:10;;;;;;;0.60;0.50;;;;;;;10.88;100.00;98147.22;10240986;28;20471;-74
2022/09/27 02:24:19;;;;;;;1.77;1.08;;;;;;;10.87;100.00;98151.72;10250079;28;20051;-76
2022/09/27 02:29:33;;;;;;;1.55;0.80;;;;;;;10.93;100.00;98153.69;10268295;28;20050;-79
2022/09/27 02:34:36;;;;;;;1.17;0.80;;;;;;;11.00;100.00;98160.94;10259511;28;20603;-75
2022/09/27 02:39:38;;;;;;;3.80;0.98;;;;;;;11.08;100.00;98159.06;10253361;28;20047;-75
2022/09/27 02:44:40;;;;;;;2.17;0.70;;;;;;;11.15;100.00;98164.50;10255140;28;20039;-75
2022/09/27 02:49:53;;;;;;;2.35;0.90;;;;;;;11.09;100.00;98167.88;10284512;28;20061;-79
2022/09/27 02:55:32;;;;;;;2.40;0.85;;;;;;;11.07;100.00;98167.22;10266385;28;20734;-73
2022/09/27 03:00:54;;;;;;;2.55;1.00;;;;;;;11.02;100.00;98172.25;10251945;28;20070;-74
2022/09/27 03:06:10;;;;;;;1.98;0.98;;;;;;;11.09;100.00;98170.53;10255763;28;20043;-75
2022/09/27 03:11:11;;;;;;;3.08;0.80;;;;;;;11.07;100.00;98175.22;10253021;28;20043;-75
2022/09/27 03:16:14;;;;;;;2.65;1.02;;;;;;;11.06;100.00;98173.53;10265915;28;20074;-77
2022/09/27 03:21:16;;;;;;;2.88;0.90;;;;;;;11.10;100.00;98188.16;10294892;28;20055;-77
2022/09/27 03:26:17;;;;;;;4.65;1.15;;;;;;;11.14;100.00;98189.47;10278980;28;20046;-74
2022/09/27 03:31:18;;;;;;;1.60;0.85;;;;;;;11.17;100.00;98198.94;10277288;28;20043;-78
2022/09/27 03:36:20;;;;;;;2.72;1.00;;;;;;;11.11;100.00;98208.47;10296433;28;20132;-76
2022/09/27 03:41:21;;;;;;;2.50;0.70;;;;;;;11.09;100.00;98207.81;10292979;28;20553;-73
2022/09/27 03:46:22;;;;;;;1.08;0.47;;;;;;;11.09;98.88;98203.31;10268793;28;20051;-74
2022/09/27 03:51:24;;;;;;;0.90;0.38;;;;;;;11.06;97.51;98218.81;10250169;28;20110;-73
2022/09/27 03:56:25;;;;;;;1.05;0.30;;;;;;;10.98;96.17;98219.69;10248816;28;20050;-77
2022/09/27 04:01:27;;;;;;;0.90;0.38;;;;;;;10.91;94.54;98226.72;10243957;28;20051;-74
2022/09/27 04:06:29;;;;;;;0.70;0.30;;;;;;;11.05;94.21;98228.63;10250632;28;20581;-75
2022/09/27 04:11:31;;;;;;;0.30;0.17;;;;;;;10.93;93.02;98240.69;10247861;28;20047;-74
2022/09/27 04:16:32;;;;;;;1.65;0.38;;;;;;;11.00;93.18;98246.13;10244452;28;20055;-74
2022/09/27 04:21:34;;;;;;;0.88;0.30;;;;;;;10.87;93.21;98252.88;10252001;28;20655;-75
2022/09/27 04:26:36;;;;;;;1.95;0.28;;;;;;;10.86;91.40;98245.88;10248625;28;20051;-76
2022/09/27 04:31:37;;;;;;;0.22;0.10;;;;;;;10.78;93.39;98251.25;10249068;28;20474;-73
2022/09/27 04:36:38;;;;;;;0.80;0.20;;;;;;;11.01;94.01;98264.59;10246830;28;20058;-76
2022/09/27 04:41:40;;;;;;;0.50;0.15;;;;;;;11.01;92.13;98269.09;10248987;28;20078;-74
2022/09/27 04:46:41;;;;;;;1.95;0.20;;;;;;;10.99;89.43;98271.09;10245726;28;20429;-74
2022/09/27 04:51:42;;;;;;;1.42;0.30;;;;;;;10.79;89.73;98277.69;10261561;28;20053;-80
2022/09/27 04:56:44;;;;;;;1.58;0.30;;;;;;;10.82;89.83;98287.13;10277830;28;20057;-74
2022/09/27 05:01:45;;;;;;;1.08;0.22;;;;;;;10.79;89.40;98292.81;10231780;28;20441;-73
2022/09/27 05:06:47;;;;;;;1.58;0.20;;;;;;;10.75;90.54;98288.84;10238585;28;20062;-74
2022/09/27 05:11:48;;;;;;;0.60;0.20;;;;;;;10.74;90.01;98292.50;10266308;28;20055;-77
2022/09/27 05:16:49;;;;;;;1.65;0.80;;;;;;;10.68;89.94;98295.88;10257204;28;20062;-75
2022/09/27 05:21:51;;;;;;;0.80;0.25;;;;;;;10.76;89.69;98309.13;10241310;28;20058;-73
2022/09/27 05:26:53;;;;;;;1.65;0.38;;;;;;;10.74;91.66;98319.13;10242674;28;20157;-75
2022/09/27 05:31:54;;;;;;;0.45;0.28;;;;;;;10.74;89.39;98324.44;10251684;28;20055;-80
2022/09/27 05:36:55;;;;;;;2.22;0.30;;;;;;;10.68;90.62;98328.63;10260150;28;20058;-79
2022/09/27 05:41:57;;;;;;;1.38;0.63;;;;;;;10.72;89.33;98318.44;10250808;28;21064;-75
2022/09/27 05:47:03;;;;;;;2.58;0.73;;;;;;;10.75;88.17;98337.56;10250281;28;20055;-75
2022/09/27 05:52:05;;;;;;;3.45;0.28;;;;;;;10.86;88.26;98341.69;10246934;28;20047;-73
2022/09/27 05:57:06;;;;;;;3.30;0.60;;;;;;;10.75;87.24;98350.88;10245165;28;20050;-74
2022/09/27 06:02:11;;;;;;;1.90;0.40;;;;;;;10.60;87.25;98353.41;10236512;28;20058;-73
2022/09/27 06:07:12;;;;;;;1.90;0.30;;;;;;;10.71;87.77;98359.38;10235429;28;20114;-74
2022/09/27 06:12:14;;;;;;;2.42;0.30;;;;;;;10.72;88.18;98361.88;10243931;28;20606;-77
2022/09/27 06:17:15;;;;;;;0.60;0.30;;;;;;;10.97;88.62;98369.75;10239820;28;20062;-74
2022/09/27 06:22:16;;;;;;;1.42;0.45;;;;;;;11.11;86.99;98376.22;10244175;28;20050;-75
2022/09/27 06:27:18;;;;;;;1.65;0.35;;;;;;;11.12;85.95;98377.88;10274374;28;20565;-76
2022/09/27 06:32:19;;;;;;;2.45;0.65;;;;;;;11.01;85.37;98391.56;10232669;28;20051;-77
2022/09/27 06:37:25;;;;;;;2.40;0.57;;;;;;;11.12;86.66;98393.84;10238337;28;20090;-74
2022/09/27 06:42:28;;;;;;;4.70;0.50;;;;;;;11.24;86.01;98408.44;10232560;28;20784;-76
2022/09/27 06:47:34;;;;;;;4.97;0.50;;;;;;;11.23;84.90;98412.13;10235436;28;20087;-75
2022/09/27 06:52:36;;;;;;;2.80;0.68;;;;;;;11.31;84.50;98409.41;10227888;28;20845;-75
2022/09/27 07:03:01;;;;;;;1.40;0.50;;;;;;;11.45;83.16;98415.00;10233970;28;20054;-72
2022/09/27 07:08:03;;;;;;;3.30;0.68;;;;;;;11.47;83.63;98426.34;10234710;28;20608;-73
2022/09/27 07:13:07;;;;;;;3.13;0.50;;;;;;;11.48;83.74;98441.28;10239520;28;20055;-73
2022/09/27 07:18:08;;;;;;;2.20;0.60;;;;;;;11.42;82.09;98457.97;10240258;28;20487;-74
2022/09/27 07:23:11;;;;;;;2.28;0.28;;;;;;;11.41;81.26;98461.63;10242729;28;20085;-73
2022/09/27 07:28:18;;;;;;;1.83;0.45;;;;;;;11.58;82.82;98468.56;10234653;28;20051;-75
2022/09/27 07:33:22;;;;;;;0.52;0.35;;;;;;;11.56;80.84;98472.41;10243141;28;20074;-72
2022/09/27 07:38:24;;;;;;;0.75;0.30;;;;;;;11.56;82.19;98475.91;10238639;28;20047;-73
2022/09/27 07:43:25;;;;;;;4.30;1.08;;;;;;;11.56;80.85;98481.25;10237520;28;20058;-70
2022/09/27 07:48:27;;;;;;;1.10;0.40;;;;;;;11.58;79.81;98486.41;10276381;28;20070;-75
2022/09/27 07:53:28;;;;;;;0.98;0.47;;;;;;;11.70;78.42;98487.66;10250715;28;20585;-74
2022/09/27 07:58:31;;;;;;;1.45;0.38;;;;;;;11.87;76.39;98507.06;10285242;28;20055;-76
2022/09/27 08:03:33;;;;;;;2.30;0.50;;;;;;;12.12;75.30;98501.66;10287485;28;20067;-74
2022/09/27 08:08:35;;;;;;;3.45;0.60;;;;;;;12.40;74.58;98509.13;10265785;28;20055;-74
2022/09/27 08:13:38;;;;;;;1.60;0.20;;;;;;;12.70;71.75;98510.91;10237647;28;20051;-72
2022/09/27 08:18:39;;;;;;;1.40;0.32;;;;;;;13.16;70.48;98509.13;10240582;28;20043;-73
2022/09/27 08:23:41;;;;;;;3.38;0.40;;;;;;;13.16;68.26;98522.50;10241016;28;20065;-76
2022/09/27 08:28:43;;;;;;;1.92;0.30;;;;;;;12.95;71.25;98526.69;10237429;28;20058;-74
2022/09/27 08:33:50;;;;;;;1.27;0.22;;;;;;;12.74;69.92;98530.03;10240099;28;20059;-72
2022/09/27 08:38:56;;;;;;;1.80;0.25;;;;;;;13.05;70.36;98531.78;10253795;28;20193;-73
2022/09/27 08:44:26;;;;;;;7.63;0.50;;;;;;;13.39;68.01;98541.13;10236601;28;20055;-73
2022/09/27 08:49:52;;;;;;;2.15;0.20;;;;;;;13.59;65.87;98536.09;10238168;28;20051;-73
2022/09/27 08:54:57;;;;;;;3.40;0.68;;;;;;;13.46;68.83;98542.06;10250270;28;20269;-75
2022/09/27 08:59:58;;;;;;;1.17;0.40;;;;;;;13.46;67.02;98551.94;10246759;28;20699;-75
2022/09/27 09:05:06;;;;;;;1.40;0.28;;;;;;;13.38;65.61;98567.03;10254746;28;20057;-74
2022/09/27 09:16:06;;;;;;;1.55;0.30;;;;;;;13.77;64.69;98551.75;10286211;28;20058;-77
2022/09/27 09:21:21;;;;;;;1.85;0.38;;;;;;;13.90;64.28;98561.78;10276503;28;20057;-71
2022/09/27 09:26:37;;;;;;;1.80;0.28;;;;;;;14.14;61.30;98555.28;10266087;28;20074;-72
2022/09/27 09:32:21;;;;;;;2.80;0.50;;;;;;;14.52;62.17;98556.91;10257936;28;20054;-73
2022/09/27 09:37:34;;;;;;;2.50;0.80;;;;;;;15.18;60.38;98554.88;10242262;28;20057;-73
2022/09/27 09:42:46;;;;;;;3.33;0.63;;;;;;;14.84;56.84;98555.63;10234739;28;20046;-75
2022/09/27 09:48:00;;;;;;;3.75;0.30;;;;;;;15.28;57.09;98548.34;10231254;28;20479;-76
2022/09/27 09:53:25;;;;;;;2.45;0.52;;;;;;;14.85;58.26;98536.69;10243583;28;20047;-74
2022/09/27 09:58:56;;;;;;;3.05;0.73;;;;;;;13.96;59.87;98534.28;10220924;28;20091;-72
2022/09/27 10:03:57;;;;;;;2.33;0.40;;;;;;;13.72;61.65;98530.94;10275453;28;20059;-77
2022/09/27 10:08:59;;;;;;;2.42;0.30;;;;;;;14.15;61.00;98524.84;10253860;28;20523;-74
2022/09/27 10:14:00;;;;;;;1.58;0.50;;;;;;;16.06;54.78;98527.53;10233789;28;20051;-77
2022/09/27 10:19:04;;;;;;;0.43;0.10;;;;;;;16.66;51.63;98515.28;10235005;28;20055;-78
2022/09/27 10:24:13;;;;;;;2.40;0.30;;;;;;;17.56;50.27;98510.25;10232836;28;20348;-75
2022/09/27 10:29:19;;;;;;;0.70;0.30;;;;;;;17.92;48.26;98518.84;10246757;28;20145;-78
2022/09/27 10:34:31;;;;;;;1.38;0.30;;;;;;;18.54;47.05;98513.75;10249494;28;20050;-72
2022/09/27 10:39:34;;;;;;;1.55;0.10;;;;;;;17.88;48.79;98507.66;10240247;28;20065;-75
2022/09/27 10:44:35;;;;;;;1.13;0.20;;;;;;;18.62;44.37;98507.28;10241454;28;20791;-73
2022/09/27 10:49:41;;;;;;;4.68;0.20;;;;;;;17.42;47.41;98500.56;10241562;28;20422;-73
2022/09/27 10:54:53;;;;;;;0.60;0.10;;;;;;;16.18;50.66;98495.59;10248790;28;21112;-72
2022/09/27 11:00:07;;;;;;;0.70;0.25;;;;;;;15.25;55.52;98503.97;10241996;28;20058;-76
2022/09/27 11:05:09;;;;;;;0.93;0.20;;;;;;;14.92;57.34;98514.47;10248280;28;20062;-75
2022/09/27 11:10:33;;;;;;;1.75;0.20;;;;;;;15.88;52.87;98503.94;10239766;28;20144;-74
2022/09/27 11:15:51;;;;;;;1.20;0.10;;;;;;;16.16;52.89;98500.31;10242161;28;20055;-75
2022/09/27 11:21:08;;;;;;;1.10;0.20;;;;;;;19.07;44.39;98494.47;10247099;28;20054;-75
2022/09/27 11:26:34;;;;;;;1.13;0.43;;;;;;;16.90;48.52;98497.75;10270627;28;20062;-74
2022/09/27 11:32:01;;;;;;;2.30;0.32;;;;;;;15.88;50.26;98487.84;10254832;28;21207;-75
2022/09/27 11:37:28;;;;;;;1.33;0.45;;;;;;;15.40;51.41;98490.47;10243053;28;20055;-76
2022/09/27 11:42:35;;;;;;;0.77;0.17;;;;;;;17.33;45.14;98472.25;10239983;28;20566;-76
2022/09/27 11:47:49;;;;;;;1.02;0.10;;;;;;;16.42;47.32;98469.16;10252695;28;20774;-81
2022/09/27 11:53:17;;;;;;;1.88;0.20;;;;;;;16.10;48.65;98468.91;10241719;28;20132;-76
2022/09/27 11:58:36;;;;;;;2.33;0.50;;;;;;;16.15;48.88;98457.56;10245032;28;20086;-78
2022/09/27 12:03:55;;;;;;;12.77;1.10;;;;;;;16.96;47.46;98459.28;10252587;28;20058;-79
2022/09/27 12:09:08;;;;;;;1.20;0.30;;;;;;;16.99;45.57;98458.03;10242118;28;20513;-80
2022/09/27 12:14:20;;;;;;;0.77;0.30;;;;;;;18.14;44.40;98462.84;10238781;28;20726;-75
2022/09/27 12:19:41;;;;;;;2.20;0.22;;;;;;;24.22;32.91;98456.50;10237632;28;20083;-74
2022/09/27 12:24:44;;;;;;;1.15;0.22;;;;;;;29.26;25.09;98453.84;10232966;28;20051;-75
2022/09/27 12:29:47;;;;;;;2.92;0.20;;;;;;;30.98;22.94;98445.66;10234245;28;20055;-76
2022/09/27 12:34:59;;;;;;;2.08;0.20;;;;;;;29.88;24.20;98444.09;10236226;28;20164;-77
2022/09/27 12:40:17;;;;;;;3.47;0.30;;;;;;;27.56;25.88;98426.00;10235532;28;20062;-75
2022/09/27 12:45:35;;;;;;;1.63;0.22;;;;;;;25.35;28.59;98434.81;10233863;28;20050;-76
2022/09/27 12:50:44;;;;;;;1.42;0.20;;;;;;;24.52;30.28;98436.13;10233722;28;20055;-75
2022/09/27 12:56:13;;;;;;;1.27;0.30;;;;;;;21.36;33.85;98428.09;10235283;28;20047;-77
2022/09/27 13:01:32;;;;;;;1.63;0.30;;;;;;;22.38;32.37;98433.88;10233284;28;20055;-76
2022/09/27 13:07:11;;;;;;;1.60;0.68;;;;;;;22.35;32.95;98428.97;10233569;28;20062;-77
2022/09/27 13:12:25;;;;;;;1.65;0.32;;;;;;;19.88;38.26;98424.28;10230987;28;20065;-79
2022/09/27 13:17:42;;;;;;;0.90;0.30;;;;;;;17.64;40.88;98437.38;10237827;28;20494;-76
2022/09/27 13:22:43;;;;;;;3.42;0.40;;;;;;;16.72;44.25;98428.47;10232588;28;20069;-80
2022/09/27 13:27:45;;;;;;;0.93;0.30;;;;;;;16.51;45.04;98430.34;10235580;28;20065;-76
2022/09/27 13:33:08;;;;;;;1.35;0.40;;;;;;;17.15;43.42;98422.66;10234160;28;20176;-75
2022/09/27 13:38:23;;;;;;;1.50;0.40;;;;;;;17.14;43.29;98424.53;10244881;28;20053;-72
2022/09/27 13:43:43;;;;;;;1.42;0.50;;;;;;;16.37;45.20;98439.44;10230695;28;20043;-73
2022/09/27 13:48:58;;;;;;;1.60;0.30;;;;;;;16.02;46.82;98424.31;10227283;28;20406;-78
2022/09/27 13:54:04;;;;;;;3.13;0.50;;;;;;;15.59;49.07;98439.84;10230182;28;20222;-76
2022/09/27 13:59:15;;;;;;;3.22;0.60;;;;;;;15.36;54.32;98440.97;10229556;28;20114;-77
2022/09/27 14:04:23;;;;;;;1.33;0.40;;;;;;;15.33;53.64;98441.38;10231953;28;20128;-77
2022/09/27 14:09:26;;;;;;;1.73;0.55;;;;;;;15.12;54.71;98432.38;10231919;28;20046;-79
2022/09/27 14:14:31;;;;;;;2.08;0.50;;;;;;;15.13;54.67;98430.53;10233900;28;20158;-76
2022/09/27 14:19:39;;;;;;;3.33;0.63;;;;;;;15.04;55.33;98424.50;10184983;28;1453301;-77
2022/09/27 14:24:41;;;;;;;2.63;0.38;;;;;;;15.22;53.12;98426.66;10234999;28;21405;-75
2022/09/27 14:29:52;;;;;;;2.90;0.20;;;;;;;15.45;53.96;98422.88;10237831;28;20055;-82
2022/09/27 14:37:22;;;;;;;0.90;0.35;;;;;;;15.36;51.56;98422.22;10231167;28;20062;-76
2022/09/27 14:40:28;;;;;;;2.67;0.40;;;;;;;15.31;52.25;98428.16;10235840;28;20050;-75
2022/09/27 14:45:35;;;;;;;0.63;0.15;;;;;;;15.28;51.83;98427.72;10234062;28;20066;-73
2022/09/27 14:50:36;;;;;;;1.60;0.30;;;;;;;15.33;52.01;98425.28;10236580;28;20050;-76
2022/09/27 14:55:38;;;;;;;1.95;0.55;;;;;;;15.16;52.78;98424.78;10234394;28;20058;-75
2022/09/27 15:00:45;;;;;;;1.02;0.40;;;;;;;15.14;52.69;98445.59;10234547;28;20069;-83
2022/09/27 15:05:47;;;;;;;1.05;0.25;;;;;;;14.91;53.64;98453.91;10266275;28;20051;-75
2022/09/27 15:10:48;;;;;;;1.35;0.40;;;;;;;14.70;53.77;98441.34;10235655;28;20602;-77
2022/09/27 15:15:51;;;;;;;1.70;0.40;;;;;;;14.36;54.14;98451.75;10231733;28;20063;-73
2022/09/27 15:20:53;;;;;;;1.80;0.60;;;;;;;14.18;54.74;98449.53;10254715;28;20054;-77
2022/09/27 15:26:28;;;;;;;1.27;0.40;;;;;;;13.93;55.78;98444.56;10261443;28;20057;-75
2022/09/27 15:31:32;;;;;;;1.58;0.45;;;;;;;13.88;57.29;98454.16;10272258;28;20134;-74
2022/09/27 15:36:54;;;;;;;1.30;0.50;;;;;;;13.81;56.82;98464.81;10262198;28;20051;-75
2022/09/27 15:42:02;;;;;;;2.33;0.40;;;;;;;13.56;58.42;98472.31;10262306;28;20057;-75
2022/09/27 15:47:04;;;;;;;0.85;0.40;;;;;;;13.27;61.97;98476.63;10231999;28;20135;-75
2022/09/27 15:52:06;;;;;;;1.00;0.35;;;;;;;12.87;64.77;98462.69;10240182;28;20051;-75
2022/09/27 15:57:11;;;;;;;2.15;0.73;;;;;;;12.77;67.42;98462.94;10262696;28;20062;-78
2022/09/27 16:02:16;;;;;;;1.98;0.65;;;;;;;12.88;68.01;98465.19;10283180;28;20050;-75
2022/09/27 16:07:17;;;;;;;2.20;0.68;;;;;;;13.00;69.30;98473.56;10276169;28;20071;-75
2022/09/27 16:12:18;;;;;;;2.05;0.80;;;;;;;12.73;69.25;98491.84;10266121;28;20055;-77
2022/09/27 16:17:20;;;;;;;1.17;0.75;;;;;;;12.52;70.16;98499.69;10251090;28;20065;-74
2022/09/27 16:22:23;;;;;;;3.75;1.40;;;;;;;12.31;76.26;98524.34;10247363;28;20109;-76
2022/09/27 16:27:26;;;;;;;2.60;1.05;;;;;;;12.03;74.51;98520.34;10246786;28;20050;-74
2022/09/27 16:32:28;;;;;;;2.08;0.93;;;;;;;11.84;73.90;98515.41;10246243;28;20055;-75
2022/09/27 16:37:30;;;;;;;1.33;0.52;;;;;;;11.87;73.50;98520.41;10251801;28;20101;-74
2022/09/27 16:42:31;;;;;;;0.85;0.50;;;;;;;11.80;74.62;98519.44;10247872;28;20051;-75
2022/09/27 16:47:33;;;;;;;3.53;1.45;;;;;;;11.96;77.24;98518.56;10250260;28;20058;-73
2022/09/27 16:52:35;;;;;;;2.10;1.90;;;;;;;11.96;79.73;98519.38;10246227;28;20131;-73
2022/09/27 16:57:37;;;;;;;1.73;1.25;;;;;;;12.01;81.08;98526.88;10248565;28;20058;-75
2022/09/27 17:02:39;;;;;;;2.28;1.35;;;;;;;11.94;79.98;98524.06;10257915;28;20054;-76
2022/09/27 17:07:41;;;;;;;1.88;1.63;;;;;;;11.82;84.03;98528.09;10251715;28;20051;-74
2022/09/27 17:12:42;;;;;;;2.08;1.40;;;;;;;11.89;82.10;98512.22;10288153;28;20110;-76
2022/09/27 17:17:47;;;;;;;2.95;1.85;;;;;;;11.83;83.09;98530.59;10255630;28;20047;-74
2022/09/27 17:22:49;;;;;;;3.75;1.48;;;;;;;11.95;84.20;98539.06;10260730;28;20077;-74
2022/09/27 17:27:50;;;;;;;4.20;2.30;;;;;;;12.17;84.40;98531.28;10265681;28;20142;-75
2022/09/27 17:32:51;;;;;;;3.70;1.80;;;;;;;12.09;84.42;98534.00;10256188;28;20051;-75
2022/09/27 17:37:53;;;;;;;2.75;1.80;;;;;;;12.24;83.43;98537.56;10267556;28;20043;-75
2022/09/27 17:42:55;;;;;;;1.42;0.90;;;;;;;12.24;82.36;98520.75;10271302;28;20055;-75
2022/09/27 17:53:16;;;;;;;4.07;1.77;;;;;;;12.29;82.51;98519.19;10278974;28;20050;-74
2022/09/27 17:58:18;;;;;;;4.72;2.17;;;;;;;12.37;83.33;98539.69;10268580;28;20140;-75
2022/09/27 18:03:20;;;;;;;3.90;2.15;;;;;;;12.40;81.97;98551.81;10290115;28;20077;-78
2022/09/27 18:08:21;;;;;;;4.03;2.17;;;;;;;12.12;83.70;98552.31;10288051;28;20491;-74
2022/09/27 18:13:23;;;;;;;2.65;2.13;;;;;;;11.99;83.95;98548.41;10279742;28;20055;-75
2022/09/27 18:18:26;;;;;;;6.60;3.17;;;;;;;11.92;83.55;98550.06;10284996;28;20059;-76
2022/09/27 18:23:29;;;;;;;3.77;2.60;;;;;;;11.88;81.71;98554.06;10301423;28;20051;-77
2022/09/27 18:28:30;;;;;;;3.88;2.67;;;;;;;11.78;83.23;98546.25;10283609;28;20053;-73
2022/09/27 18:33:33;;;;;;;2.78;2.20;;;;;;;11.78;81.23;98553.44;10294409;28;20050;-75
2022/09/27 18:38:34;;;;;;;3.80;2.25;;;;;;;11.82;83.37;98550.25;10292929;28;20050;-75
2022/09/27 18:43:37;;;;;;;3.90;2.15;;;;;;;11.88;81.47;98555.91;10290623;28;20036;-74
2022/09/27 18:48:40;;;;;;;3.95;2.40;;;;;;;11.96;81.38;98546.03;10290335;28;20057;-78
2022/09/27 18:53:42;;;;;;;3.60;2.33;;;;;;;11.98;81.82;98549.38;10288792;28;20063;-75
2022/09/27 18:58:44;;;;;;;3.67;2.53;;;;;;;11.95;81.91;98557.75;10287060;28;20134;-75
2022/09/27 19:03:46;;;;;;;3.83;2.35;;;;;;;12.03;81.19;98562.19;10300829;28;20050;-78
2022/09/27 19:08:54;;;;;;;3.72;2.20;;;;;;;11.82;78.62;98560.91;10271153;28;20806;-73
2022/09/27 19:13:56;;;;;;;2.97;1.80;;;;;;;11.57;78.08;98560.16;10231560;28;20524;-73
2022/09/27 19:18:58;;;;;;;2.95;1.75;;;;;;;11.61;80.30;98563.34;10263198;28;20050;-73
2022/09/27 19:23:59;;;;;;;2.15;1.77;;;;;;;11.41;79.79;98573.53;10261839;28;20047;-74
2022/09/27 19:29:01;;;;;;;2.53;2.00;;;;;;;11.30;80.27;98575.56;10248969;28;20050;-75
2022/09/27 19:34:03;;;;;;;2.45;2.00;;;;;;;11.18;79.66;98568.91;10254013;28;20051;-74
2022/09/27 19:39:04;;;;;;;2.53;1.70;;;;;;;11.28;80.81;98574.88;10253862;28;20047;-74
2022/09/27 19:44:05;;;;;;;3.72;1.98;;;;;;;11.19;79.05;98575.91;10252247;28;20683;-74
2022/09/27 19:49:07;;;;;;;2.13;1.90;;;;;;;11.07;75.94;98567.44;10280344;28;20700;-77
2022/09/27 19:54:09;;;;;;;1.92;1.45;;;;;;;10.98;75.42;98572.94;10277722;28;20155;-76
2022/09/27 19:59:10;;;;;;;4.22;1.77;;;;;;;10.98;75.15;98565.78;10297609;28;20043;-77
2022/09/27 20:04:12;;;;;;;4.00;2.80;;;;;;;11.03;77.07;98555.44;10289426;28;20138;-76
2022/09/27 20:09:14;;;;;;;3.13;1.83;;;;;;;11.07;75.20;98553.28;10287866;28;20065;-76
2022/09/27 20:14:15;;;;;;;2.95;1.88;;;;;;;11.08;74.74;98542.47;10285577;28;20078;-77
2022/09/27 20:19:16;;;;;;;2.35;1.60;;;;;;;11.13;75.94;98560.59;10293726;28;20346;-78
2022/09/27 20:24:19;;;;;;;12.13;2.42;;;;;;;10.95;75.91;98552.81;10295016;28;20055;-75
2022/09/27 20:29:20;;;;;;;3.63;1.80;;;;;;;10.84;75.44;98548.66;10290657;28;20046;-74
2022/09/27 20:34:22;;;;;;;4.55;1.70;;;;;;;10.90;76.79;98540.00;10291968;28;20047;-75
2022/09/27 20:39:24;;;;;;;1.17;1.08;;;;;;;10.74;76.14;98540.81;10268389;28;20046;-74
2022/09/27 20:44:25;;;;;;;2.25;1.20;;;;;;;10.60;76.50;98537.00;10262493;28;20069;-74
2022/09/27 20:49:27;;;;;;;2.72;1.60;;;;;;;10.41;76.96;98530.16;10275022;28;20048;-74
2022/09/27 20:54:28;;;;;;;3.88;1.23;;;;;;;10.41;77.17;98532.81;10250969;28;20063;-74
2022/09/27 20:59:29;;;;;;;1.88;1.25;;;;;;;10.43;78.51;98532.66;10260553;28;20058;-75
2022/09/27 21:04:31;;;;;;;1.33;0.90;;;;;;;10.38;78.06;98519.03;10286473;28;20794;-74
2022/09/27 21:09:34;;;;;;;1.92;1.75;;;;;;;10.27;80.21;98517.50;10251520;28;20566;-75
2022/09/27 21:14:35;;;;;;;2.58;1.40;;;;;;;10.14;79.64;98517.13;10247915;28;20051;-74
2022/09/27 21:19:37;;;;;;;1.80;1.67;;;;;;;10.21;80.97;98513.66;10250318;28;20047;-74
2022/09/27 21:24:38;;;;;;;1.90;1.30;;;;;;;10.04;81.44;98515.47;10252351;28;20062;-76
2022/09/27 21:29:39;;;;;;;2.47;1.48;;;;;;;9.99;82.04;98508.97;10250480;28;20453;-74
2022/09/27 21:34:41;;;;;;;3.85;1.98;;;;;;;9.85;82.31;98513.09;10250575;28;20713;-75
2022/09/27 21:39:42;;;;;;;3.53;1.50;;;;;;;9.72;83.39;98503.72;10245476;28;20426;-77
2022/09/27 21:44:43;;;;;;;2.55;1.65;;;;;;;9.69;83.35;98496.06;10249497;28;20051;-74
2022/09/27 21:49:45;;;;;;;2.03;1.35;;;;;;;9.73;85.10;98486.78;10243002;28;20646;-75
2022/09/27 21:54:46;;;;;;;3.83;1.67;;;;;;;9.81;83.92;98474.53;10283749;28;20034;-75
2022/09/27 21:59:47;;;;;;;3.13;1.90;;;;;;;9.81;84.84;98485.97;10259675;28;20046;-74
2022/09/27 22:04:49;;;;;;;3.65;1.70;;;;;;;9.65;85.30;98481.47;10243015;28;20051;-74
2022/09/27 22:09:50;;;;;;;3.63;1.55;;;;;;;9.64;86.60;98478.97;10240919;28;20043;-75
2022/09/27 22:14:51;;;;;;;3.92;1.88;;;;;;;9.68;85.78;98469.66;10246179;28;20043;-74
2022/09/27 22:19:53;;;;;;;4.13;1.90;;;;;;;9.43;86.95;98461.63;10247982;28;20055;-75
2022/09/27 22:24:54;;;;;;;3.25;1.75;;;;;;;9.30;88.28;98456.75;10245592;28;20048;-75
2022/09/27 22:29:55;;;;;;;3.17;1.80;;;;;;;9.38;88.55;98443.53;10244376;28;20055;-75
2022/09/27 22:34:57;;;;;;;2.17;1.80;;;;;;;9.46;87.70;98434.75;10246351;28;20048;-75
2022/09/27 22:39:58;;;;;;;2.70;1.73;;;;;;;9.46;88.49;98440.06;10243401;28;20046;-75
2022/09/27 22:44:59;;;;;;;2.92;1.60;;;;;;;9.57;87.99;98430.97;10253134;28;20521;-76
2022/09/27 22:50:01;;;;;;;3.53;2.67;;;;;;;9.66;87.84;98424.66;10256116;28;20709;-76
2022/09/27 22:55:02;;;;;;;4.50;1.80;;;;;;;9.74;86.91;98410.56;10251046;28;20617;-74
2022/09/27 23:00:05;;;;;;;2.30;1.42;;;;;;;9.76;87.01;98384.69;10252180;28;20564;-75
2022/09/27 23:05:07;;;;;;;3.35;1.60;;;;;;;9.73;86.73;98387.66;10264303;28;20058;-77
2022/09/27 23:10:08;;;;;;;2.55;1.30;;;;;;;9.73;87.88;98371.72;10306056;28;20066;-78
2022/09/27 23:15:12;;;;;;;3.10;2.30;;;;;;;9.86;87.24;98368.56;10255321;28;20516;-77
2022/09/27 23:20:14;;;;;;;4.32;1.90;;;;;;;9.79;87.17;98355.13;10300886;28;20139;-76
2022/09/27 23:25:15;;;;;;;2.08;1.85;;;;;;;9.81;87.63;98353.13;10285799;28;20517;-76
2022/09/27 23:30:18;;;;;;;3.78;1.60;;;;;;;9.93;87.16;98356.28;10256190;28;20051;-75
2022/09/27 23:35:20;;;;;;;3.95;1.35;;;;;;;9.98;87.69;98345.16;10251680;28;20055;-76
2022/09/27 23:40:23;;;;;;;3.75;1.90;;;;;;;10.05;87.64;98335.53;10252190;28;20068;-76
2022/09/27 23:45:26;;;;;;;5.43;1.77;;;;;;;10.00;87.96;98327.22;10253908;28;20077;-77
2022/09/27 23:50:27;;;;;;;3.25;1.60;;;;;;;10.06;88.98;98308.78;10249484;28;20604;-75
2022/09/27 23:55:29;;;;;;;3.75;1.70;;;;;;;10.02;89.35;98314.59;10254249;28;20058;-77
